Time;durP1;ratioP1;P1;durP2;ratioP2;P2;SDS_P1;SDS_P2;PMS_P1;PMS_P2;Temp;Humidity;BMP_temperature;BMP_pressure;BME280_temperature;BME280_humidity;BME280_pressure;Samples;Min_cycle;Max_cycle;Signal;HPM_P1;HPM_P2
2024/02/26 00:01:43;;;;;;;24.60;15.43;;;4.80;99.90;;;;;;5119955;27;20035;-63
2024/02/26 00:04:10;;;;;;;23.42;16.05;;;4.60;99.90;;;;;;5119746;27;20047;-63
2024/02/26 00:06:36;;;;;;;25.50;16.38;;;4.80;99.90;;;;;;5112644;28;20132;-63
2024/02/26 00:09:05;;;;;;;26.02;16.30;;;4.80;99.90;;;;;;5112212;28;20114;-63
2024/02/26 00:11:31;;;;;;;23.52;15.80;;;4.80;99.90;;;;;;5118606;28;20122;-62
2024/02/26 00:13:58;;;;;;;24.58;16.77;;;4.80;99.90;;;;;;5120439;28;20039;-63
2024/02/26 00:16:24;;;;;;;23.45;16.15;;;4.80;99.90;;;;;;5115778;27;20035;-63
2024/02/26 00:18:49;;;;;;;23.67;16.50;;;4.80;99.90;;;;;;5120592;28;20036;-63
2024/02/26 00:21:15;;;;;;;21.70;15.70;;;4.70;99.90;;;;;;5117335;28;20403;-63
2024/02/26 00:23:41;;;;;;;23.42;15.48;;;4.80;99.90;;;;;;5113017;27;20038;-63
2024/02/26 00:26:07;;;;;;;20.35;14.82;;;4.80;99.90;;;;;;5116977;28;20035;-63
2024/02/26 00:28:33;;;;;;;23.55;16.60;;;4.70;99.90;;;;;;5120767;27;20035;-63
2024/02/26 00:30:59;;;;;;;21.83;16.05;;;4.80;99.90;;;;;;5114777;27;20039;-63
2024/02/26 00:33:25;;;;;;;21.00;14.88;;;4.70;99.90;;;;;;5114790;27;20123;-63
2024/02/26 00:35:50;;;;;;;19.90;14.70;;;4.80;99.90;;;;;;5118179;27;20075;-62
2024/02/26 00:38:16;;;;;;;19.00;14.20;;;4.80;99.90;;;;;;5113832;27;20394;-63
2024/02/26 00:40:42;;;;;;;18.77;13.68;;;4.80;99.90;;;;;;5116505;27;20598;-63
2024/02/26 00:43:08;;;;;;;18.35;12.98;;;4.80;99.90;;;;;;5119671;27;20105;-64
2024/02/26 00:45:33;;;;;;;17.17;12.98;;;4.90;99.90;;;;;;5110888;27;20041;-63
2024/02/26 00:48:05;;;;;;;16.23;12.95;;;4.90;99.90;;;;;;5115490;27;20140;-63
2024/02/26 00:50:33;;;;;;;16.10;12.27;;;4.80;99.90;;;;;;5117961;27;20035;-63
2024/02/26 00:53:00;;;;;;;16.33;11.63;;;4.90;99.90;;;;;;5122520;27;20063;-64
2024/02/26 00:55:26;;;;;;;17.25;11.48;;;4.80;99.90;;;;;;5125997;27;20076;-62
2024/02/26 00:57:52;;;;;;;15.82;12.13;;;4.90;99.90;;;;;;5112690;27;20043;-64
2024/02/26 01:00:18;;;;;;;16.10;11.77;;;4.80;99.90;;;;;;5120137;27;20039;-63
2024/02/26 01:02:46;;;;;;;17.65;11.90;;;4.90;99.90;;;;;;5120025;27;20072;-64
2024/02/26 01:05:13;;;;;;;14.48;11.77;;;4.90;99.90;;;;;;5118331;27;20039;-63
2024/02/26 01:07:39;;;;;;;14.90;12.30;;;4.80;99.90;;;;;;5119227;27;20072;-63
2024/02/26 01:10:06;;;;;;;15.20;11.80;;;4.90;99.90;;;;;;5122408;27;20047;-63
2024/02/26 01:12:33;;;;;;;15.05;11.50;;;4.90;99.90;;;;;;5116072;27;20052;-63
2024/02/26 01:14:59;;;;;;;18.27;12.05;;;4.80;99.90;;;;;;5116999;27;20050;-63
2024/02/26 01:17:25;;;;;;;17.92;12.07;;;4.80;99.90;;;;;;5117027;27;20039;-63
2024/02/26 01:19:51;;;;;;;14.55;11.23;;;4.80;99.90;;;;;;5114854;27;20567;-63
2024/02/26 01:22:16;;;;;;;17.88;11.70;;;4.80;99.90;;;;;;5118457;27;20554;-63
2024/02/26 01:24:42;;;;;;;16.10;11.30;;;4.80;99.90;;;;;;5125302;27;20437;-63
2024/02/26 01:27:09;;;;;;;14.13;10.88;;;4.70;99.90;;;;;;5123119;27;20508;-63
2024/02/26 01:29:34;;;;;;;12.80;9.80;;;4.70;99.90;;;;;;5117537;27;20043;-63
2024/02/26 01:32:00;;;;;;;13.07;10.07;;;4.70;99.90;;;;;;5115014;27;20074;-63
2024/02/26 01:34:26;;;;;;;12.77;9.90;;;4.70;99.90;;;;;;5126733;27;20351;-63
2024/02/26 01:36:52;;;;;;;13.82;10.10;;;4.70;99.90;;;;;;5119049;27;20070;-63
2024/02/26 01:39:18;;;;;;;12.95;9.50;;;4.70;99.90;;;;;;5119881;27;20460;-63
2024/02/26 01:41:44;;;;;;;13.10;9.73;;;4.70;99.90;;;;;;5115912;27;20032;-63
2024/02/26 01:44:13;;;;;;;14.48;9.00;;;4.60;99.90;;;;;;5110520;27;20122;-63
2024/02/26 01:46:38;;;;;;;;;;;4.60;99.90;;;;;;5116348;27;20058;-63
2024/02/26 01:49:05;;;;;;;10.65;8.13;;;4.60;99.90;;;;;;5120525;27;19920;-63
2024/02/26 01:51:33;;;;;;;10.63;8.60;;;4.60;99.90;;;;;;5117271;27;20569;-62
2024/02/26 01:54:01;;;;;;;10.98;8.50;;;4.60;99.90;;;;;;5117426;27;20046;-62
2024/02/26 01:56:30;;;;;;;11.10;8.05;;;4.50;99.90;;;;;;5115836;27;20039;-62
2024/02/26 01:58:56;;;;;;;;;;;4.50;99.90;;;;;;5113962;27;20043;-62
2024/02/26 02:01:25;;;;;;;11.55;8.00;;;4.50;99.90;;;;;;5115158;27;19923;-62
2024/02/26 02:03:51;;;;;;;11.30;8.33;;;4.60;99.90;;;;;;5113072;27;20042;-62
2024/02/26 02:06:17;;;;;;;10.70;7.97;;;4.60;99.90;;;;;;5123137;27;20746;-62
2024/02/26 02:08:43;;;;;;;12.18;9.15;;;4.60;99.90;;;;;;5107184;27;20051;-62
2024/02/26 02:11:11;;;;;;;10.68;8.93;;;4.60;99.90;;;;;;5108179;27;20065;-62
2024/02/26 02:13:37;;;;;;;12.43;8.83;;;4.60;99.90;;;;;;5109645;27;20066;-63
2024/02/26 02:16:04;;;;;;;11.80;8.15;;;4.50;99.90;;;;;;5119629;27;20508;-63
2024/02/26 02:18:30;;;;;;;12.05;7.78;;;4.50;99.90;;;;;;5108752;27;20050;-63
2024/02/26 02:20:59;;;;;;;10.40;8.10;;;4.50;99.90;;;;;;5117274;27;20027;-62
2024/02/26 02:23:25;;;;;;;9.68;7.03;;;4.50;99.90;;;;;;5122070;27;20039;-63
2024/02/26 02:25:51;;;;;;;10.55;7.38;;;4.50;99.90;;;;;;5114297;27;20477;-62
2024/02/26 02:28:17;;;;;;;11.18;7.15;;;4.40;99.90;;;;;;5121126;27;20047;-62
2024/02/26 02:30:43;;;;;;;10.65;7.57;;;4.50;99.90;;;;;;5121786;27;20489;-62
2024/02/26 02:33:11;;;;;;;10.55;7.35;;;4.50;99.90;;;;;;5122492;27;20046;-62
2024/02/26 02:35:37;;;;;;;9.45;6.93;;;4.50;99.90;;;;;;5130984;27;20088;-62
2024/02/26 02:38:03;;;;;;;9.07;6.82;;;4.40;99.90;;;;;;5121660;27;20079;-62
2024/02/26 02:40:29;;;;;;;14.52;7.78;;;4.40;99.90;;;;;;5121164;27;20047;-62
2024/02/26 02:42:55;;;;;;;9.80;6.80;;;4.50;99.90;;;;;;5121548;27;20417;-62
2024/02/26 02:45:20;;;;;;;11.45;7.15;;;4.40;99.90;;;;;;5115689;27;20075;-62
2024/02/26 02:47:46;;;;;;;13.73;7.13;;;4.50;99.90;;;;;;5118424;27;20774;-63
2024/02/26 02:50:12;;;;;;;9.05;6.68;;;4.40;99.90;;;;;;5098257;27;20139;-63
2024/02/26 02:52:38;;;;;;;8.55;6.28;;;4.40;99.90;;;;;;5119353;27;20503;-63
2024/02/26 02:55:04;;;;;;;10.60;6.57;;;4.40;99.90;;;;;;5113142;27;20034;-63
2024/02/26 02:57:30;;;;;;;8.13;6.28;;;4.40;99.90;;;;;;5119640;27;20600;-63
2024/02/26 02:59:56;;;;;;;9.48;6.00;;;4.40;99.90;;;;;;5118944;27;20524;-63
2024/02/26 03:02:24;;;;;;;9.05;6.70;;;4.40;99.90;;;;;;5115284;27;20482;-62
2024/02/26 03:04:51;;;;;;;8.88;6.13;;;4.40;99.90;;;;;;5121488;27;20549;-63
2024/02/26 03:07:16;;;;;;;8.50;6.00;;;4.40;99.90;;;;;;5116442;27;20039;-63
2024/02/26 03:09:43;;;;;;;6.63;5.55;;;4.40;99.90;;;;;;5111275;27;20051;-63
2024/02/26 03:12:08;;;;;;;7.00;6.30;;;4.40;99.90;;;;;;5111307;27;20043;-63
2024/02/26 03:14:34;;;;;;;8.45;5.50;;;4.40;99.90;;;;;;5115864;27;20473;-63
2024/02/26 03:17:00;;;;;;;6.00;5.20;;;4.40;99.90;;;;;;5119555;27;20055;-63
2024/02/26 03:19:26;;;;;;;7.13;5.57;;;4.40;99.90;;;;;;5120295;27;20047;-64
2024/02/26 03:21:52;;;;;;;9.63;5.65;;;4.40;99.90;;;;;;5117997;27;20103;-63
2024/02/26 03:24:17;;;;;;;7.28;5.90;;;4.40;99.90;;;;;;5113734;27;20049;-63
2024/02/26 03:26:43;;;;;;;10.18;5.55;;;4.40;99.90;;;;;;5117893;27;20030;-63
2024/02/26 03:29:09;;;;;;;6.88;5.50;;;4.40;99.90;;;;;;5106610;27;20074;-63
2024/02/26 03:31:35;;;;;;;7.55;5.40;;;4.40;99.90;;;;;;5118852;27;20039;-63
2024/02/26 03:34:00;;;;;;;7.28;4.88;;;4.40;99.90;;;;;;5116496;27;20035;-63
2024/02/26 03:36:26;;;;;;;5.93;5.03;;;4.40;99.90;;;;;;5119088;27;20031;-62
2024/02/26 03:38:52;;;;;;;5.88;5.28;;;4.40;99.90;;;;;;5117762;27;20104;-63
2024/02/26 03:41:18;;;;;;;5.63;4.72;;;4.30;99.90;;;;;;5114096;28;20039;-63
2024/02/26 03:43:45;;;;;;;7.55;5.43;;;4.40;99.90;;;;;;5120352;27;20115;-61
2024/02/26 03:46:13;;;;;;;6.50;4.95;;;4.40;99.90;;;;;;5108484;27;20109;-61
2024/02/26 03:48:40;;;;;;;5.35;4.85;;;4.40;99.90;;;;;;5117627;27;20042;-63
2024/02/26 03:51:05;;;;;;;6.25;4.93;;;4.40;99.90;;;;;;5107599;27;20082;-62
2024/02/26 03:53:31;;;;;;;6.68;4.68;;;4.40;99.90;;;;;;5112118;27;20153;-62
2024/02/26 03:55:57;;;;;;;6.88;4.95;;;4.40;99.90;;;;;;5114278;27;20897;-62
2024/02/26 03:58:23;;;;;;;6.65;5.25;;;4.40;99.90;;;;;;5113359;27;20071;-62
2024/02/26 04:00:48;;;;;;;10.88;4.82;;;4.30;99.90;;;;;;5112078;27;20494;-62
2024/02/26 04:03:14;;;;;;;6.07;4.13;;;4.40;99.90;;;;;;5111178;28;20096;-62
2024/02/26 04:05:40;;;;;;;6.15;4.70;;;4.40;99.90;;;;;;5121742;27;20031;-62
2024/02/26 04:08:07;;;;;;;9.00;5.00;;;4.40;99.90;;;;;;5120868;27;20035;-62
2024/02/26 04:10:35;;;;;;;8.25;5.43;;;4.40;99.90;;;;;;5116818;27;20039;-62
2024/02/26 04:13:01;;;;;;;5.68;4.60;;;4.40;99.90;;;;;;5119400;27;20128;-62
2024/02/26 04:15:27;;;;;;;8.90;4.40;;;4.30;99.90;;;;;;5117412;27;20508;-63
2024/02/26 04:17:52;;;;;;;5.82;4.50;;;4.40;99.90;;;;;;5113523;27;20138;-62
2024/02/26 04:20:18;;;;;;;5.22;3.97;;;4.40;99.90;;;;;;5114876;27;20367;-63
2024/02/26 04:22:44;;;;;;;6.30;4.60;;;4.50;99.90;;;;;;5115270;27;20074;-63
2024/02/26 04:25:11;;;;;;;5.13;3.95;;;4.40;99.90;;;;;;5112157;27;20040;-63
2024/02/26 04:27:37;;;;;;;8.02;4.82;;;4.30;99.90;;;;;;5120066;27;20038;-63
2024/02/26 04:30:04;;;;;;;6.43;4.10;;;4.40;99.90;;;;;;5139950;27;20050;-63
2024/02/26 04:32:29;;;;;;;5.38;4.10;;;4.40;99.90;;;;;;5110527;27;20055;-63
2024/02/26 04:34:55;;;;;;;6.82;4.50;;;4.40;99.90;;;;;;5116200;27;20079;-62
2024/02/26 04:37:21;;;;;;;7.35;3.90;;;4.50;99.90;;;;;;5123581;27;20039;-62
2024/02/26 04:39:47;;;;;;;6.05;3.67;;;4.40;99.90;;;;;;5118524;27;20198;-62
2024/02/26 04:42:12;;;;;;;7.55;4.30;;;4.40;99.90;;;;;;5115736;27;20038;-62
2024/02/26 04:44:38;;;;;;;7.68;4.13;;;4.40;99.90;;;;;;5120419;27;20078;-62
2024/02/26 04:47:04;;;;;;;8.55;4.20;;;4.40;99.90;;;;;;5121995;27;20031;-62
2024/02/26 04:49:30;;;;;;;6.63;3.50;;;4.40;99.90;;;;;;5118283;27;20044;-62
2024/02/26 04:51:56;;;;;;;6.82;3.90;;;4.40;99.90;;;;;;5123837;27;20111;-62
2024/02/26 04:54:21;;;;;;;6.78;4.20;;;4.40;99.90;;;;;;5114899;27;20464;-62
2024/02/26 04:56:48;;;;;;;5.82;3.47;;;4.40;99.90;;;;;;5117993;27;20450;-62
2024/02/26 04:59:14;;;;;;;6.05;3.92;;;4.50;99.90;;;;;;5122351;27;20583;-62
2024/02/26 05:01:39;;;;;;;6.40;3.60;;;4.50;99.90;;;;;;5118219;27;20133;-61
2024/02/26 05:04:05;;;;;;;6.38;3.97;;;4.50;99.90;;;;;;5120234;27;20477;-61
2024/02/26 05:06:31;;;;;;;4.57;3.88;;;4.50;99.90;;;;;;5113946;27;20042;-62
2024/02/26 05:08:57;;;;;;;3.30;3.00;;;4.50;99.90;;;;;;5115492;27;20051;-62
2024/02/26 05:11:22;;;;;;;5.88;2.97;;;4.50;99.90;;;;;;5118334;27;20113;-62
2024/02/26 05:13:48;;;;;;;4.53;3.20;;;4.50;99.90;;;;;;5118275;27;20063;-62
2024/02/26 05:16:14;;;;;;;4.72;3.28;;;4.40;99.90;;;;;;5116130;27;20499;-62
2024/02/26 05:18:40;;;;;;;5.38;3.33;;;4.50;99.90;;;;;;5120066;27;20043;-62
2024/02/26 05:21:05;;;;;;;3.92;3.20;;;4.50;99.90;;;;;;5119366;27;20054;-63
2024/02/26 05:23:31;;;;;;;3.67;2.90;;;4.50;99.90;;;;;;5111071;27;20097;-63
2024/02/26 05:25:57;;;;;;;4.63;2.72;;;4.50;99.90;;;;;;5106403;27;20051;-63
2024/02/26 05:28:23;;;;;;;4.47;3.20;;;4.50;99.90;;;;;;5118644;27;20039;-62
2024/02/26 05:30:48;;;;;;;5.32;3.13;;;4.50;99.90;;;;;;5117266;27;20051;-62
2024/02/26 05:33:14;;;;;;;3.55;2.72;;;4.60;99.90;;;;;;5113462;27;20124;-62
2024/02/26 05:35:40;;;;;;;5.78;2.88;;;4.60;99.90;;;;;;5124678;27;20065;-63
2024/02/26 05:38:06;;;;;;;5.43;2.90;;;4.60;99.90;;;;;;5132470;27;20572;-62
2024/02/26 05:40:32;;;;;;;2.80;2.50;;;4.60;99.90;;;;;;5109372;27;20043;-63
2024/02/26 05:42:57;;;;;;;5.00;2.80;;;4.60;99.90;;;;;;5113494;27;20058;-63
2024/02/26 05:45:23;;;;;;;5.13;2.30;;;4.60;99.90;;;;;;5108388;27;20074;-63
2024/02/26 05:47:49;;;;;;;5.72;2.80;;;4.60;99.90;;;;;;5122601;27;20497;-63
2024/02/26 05:50:15;;;;;;;4.50;2.70;;;4.60;99.90;;;;;;5111370;27;20039;-62
2024/02/26 05:52:41;;;;;;;6.35;2.95;;;4.60;99.90;;;;;;5124973;27;20111;-63
2024/02/26 05:55:08;;;;;;;3.80;2.65;;;4.60;99.90;;;;;;5123914;27;20412;-63
2024/02/26 05:57:35;;;;;;;5.75;3.15;;;4.60;99.90;;;;;;5124547;27;20046;-64
2024/02/26 06:00:03;;;;;;;6.03;2.70;;;4.60;99.90;;;;;;5129647;27;20039;-62
2024/02/26 06:02:32;;;;;;;4.43;1.90;;;4.60;99.90;;;;;;5123249;27;20511;-63
2024/02/26 06:04:58;;;;;;;2.78;2.25;;;4.60;99.90;;;;;;5126861;27;20037;-62
2024/02/26 06:07:24;;;;;;;2.38;2.17;;;4.60;99.90;;;;;;5128311;27;20649;-63
2024/02/26 06:09:50;;;;;;;3.70;2.72;;;4.60;99.90;;;;;;5127380;27;20045;-63
2024/02/26 06:12:16;;;;;;;3.03;2.70;;;4.70;99.90;;;;;;5128897;27;20042;-64
2024/02/26 06:14:42;;;;;;;4.47;2.17;;;4.60;99.90;;;;;;5127003;27;20042;-63
2024/02/26 06:17:08;;;;;;;4.32;2.10;;;4.60;99.90;;;;;;5129142;27;20066;-62
2024/02/26 06:19:34;;;;;;;2.50;2.15;;;4.60;99.90;;;;;;5126728;27;20126;-62
2024/02/26 06:21:59;;;;;;;2.63;2.42;;;4.60;99.90;;;;;;5127938;27;20039;-62
2024/02/26 06:24:25;;;;;;;3.00;2.63;;;4.70;99.90;;;;;;5129320;27;20035;-62
2024/02/26 06:26:51;;;;;;;3.17;2.45;;;4.70;99.90;;;;;;5130543;27;20031;-62
2024/02/26 06:29:17;;;;;;;3.20;2.42;;;4.70;99.90;;;;;;5125301;27;20121;-63
2024/02/26 06:31:43;;;;;;;4.55;2.40;;;4.60;99.90;;;;;;5126763;27;20042;-63
2024/02/26 06:34:09;;;;;;;3.83;2.50;;;4.70;99.90;;;;;;5126319;27;20118;-62
2024/02/26 06:36:35;;;;;;;3.17;2.78;;;4.70;99.90;;;;;;5125093;27;20408;-62
2024/02/26 06:39:00;;;;;;;2.90;2.28;;;4.70;99.90;;;;;;5125928;27;20095;-62
2024/02/26 06:41:29;;;;;;;5.22;2.90;;;4.80;99.90;;;;;;5129545;27;20080;-63
2024/02/26 06:43:55;;;;;;;3.88;2.83;;;4.70;99.90;;;;;;5128713;27;20031;-62
2024/02/26 06:46:25;;;;;;;4.75;2.65;;;4.70;99.90;;;;;;5128727;27;20144;-63
2024/02/26 06:48:52;;;;;;;5.60;3.22;;;4.70;99.90;;;;;;5128570;27;20068;-62
2024/02/26 06:51:17;;;;;;;3.97;3.10;;;4.70;99.90;;;;;;5128102;27;20168;-63
2024/02/26 06:53:43;;;;;;;3.53;2.78;;;4.70;99.90;;;;;;5128381;27;20038;-62
2024/02/26 06:56:09;;;;;;;3.30;2.50;;;4.80;99.90;;;;;;5125257;27;20035;-63
2024/02/26 06:58:35;;;;;;;3.90;2.65;;;4.80;99.90;;;;;;5129432;27;20043;-64
2024/02/26 07:01:00;;;;;;;4.32;2.65;;;4.80;99.90;;;;;;5129916;27;20047;-62
2024/02/26 07:03:26;;;;;;;4.43;2.90;;;4.70;99.90;;;;;;5127901;27;20039;-62
2024/02/26 07:05:52;;;;;;;7.63;2.90;;;4.70;99.90;;;;;;5128694;27;20038;-62
2024/02/26 07:08:18;;;;;;;4.90;2.60;;;4.80;99.90;;;;;;5127434;27;20440;-62
2024/02/26 07:10:44;;;;;;;4.53;2.72;;;4.80;99.90;;;;;;5124823;27;20336;-62
2024/02/26 07:13:10;;;;;;;3.50;2.42;;;4.70;99.90;;;;;;5123844;27;20038;-62
2024/02/26 07:15:36;;;;;;;3.63;2.60;;;4.70;99.90;;;;;;5127392;27;20104;-62
2024/02/26 07:18:04;;;;;;;5.38;3.00;;;4.80;99.90;;;;;;5125208;27;20050;-62
2024/02/26 07:20:30;;;;;;;5.43;2.65;;;4.80;99.90;;;;;;5126594;27;20125;-62
2024/02/26 07:22:57;;;;;;;3.92;2.60;;;4.80;99.90;;;;;;5127209;27;20123;-62
2024/02/26 07:25:24;;;;;;;5.88;2.67;;;4.80;99.90;;;;;;5128551;27;20043;-62
2024/02/26 07:27:50;;;;;;;5.40;2.88;;;4.90;99.90;;;;;;5127075;27;20078;-62
2024/02/26 07:30:16;;;;;;;6.72;2.42;;;4.90;99.90;;;;;;5128603;27;20629;-61
2024/02/26 07:32:42;;;;;;;4.68;2.60;;;4.90;99.90;;;;;;5127217;27;20043;-62
2024/02/26 07:35:08;;;;;;;13.18;2.72;;;4.90;99.90;;;;;;5127661;27;20539;-62
2024/02/26 07:37:34;;;;;;;7.13;2.50;;;4.90;99.90;;;;;;5124481;27;20035;-62
2024/02/26 07:40:00;;;;;;;5.88;2.53;;;4.90;99.90;;;;;;5130300;27;20729;-64
2024/02/26 07:42:26;;;;;;;4.10;2.30;;;4.90;99.90;;;;;;5129962;27;20039;-62
2024/02/26 07:44:52;;;;;;;6.22;2.50;;;4.90;99.90;;;;;;5125239;27;20051;-62
2024/02/26 07:47:18;;;;;;;4.30;2.40;;;4.90;99.90;;;;;;5116641;27;20039;-62
2024/02/26 07:49:44;;;;;;;6.45;2.50;;;4.90;99.90;;;;;;5119662;27;20665;-62
2024/02/26 07:52:10;;;;;;;4.25;2.30;;;4.90;99.90;;;;;;5121823;27;20087;-62
2024/02/26 07:54:36;;;;;;;3.28;2.40;;;4.90;99.90;;;;;;5126422;27;20035;-62
2024/02/26 07:57:05;;;;;;;4.72;2.47;;;5.00;99.90;;;;;;5123844;27;20043;-63
2024/02/26 07:59:32;;;;;;;4.43;2.47;;;5.00;99.90;;;;;;5125694;27;20065;-63
2024/02/26 08:01:58;;;;;;;5.40;2.25;;;5.00;99.90;;;;;;5127317;27;20047;-62
2024/02/26 08:04:23;;;;;;;2.22;1.90;;;5.00;99.90;;;;;;5124610;27;20580;-62
2024/02/26 08:06:49;;;;;;;2.83;2.13;;;5.00;99.90;;;;;;5128074;27;20038;-62
2024/02/26 08:09:15;;;;;;;3.90;2.22;;;5.10;99.90;;;;;;5126059;27;20039;-62
2024/02/26 08:11:41;;;;;;;3.03;1.98;;;5.10;99.90;;;;;;5124532;27;20031;-62
2024/02/26 08:14:07;;;;;;;3.08;1.90;;;5.10;99.90;;;;;;5126337;27;20467;-62
2024/02/26 08:16:33;;;;;;;2.92;2.00;;;5.20;99.90;;;;;;5126508;27;20512;-62
2024/02/26 08:18:59;;;;;;;1.67;1.58;;;5.20;99.90;;;;;;5126459;27;20042;-62
2024/02/26 08:21:25;;;;;;;2.97;1.60;;;5.20;99.90;;;;;;5122491;27;20798;-62
2024/02/26 08:23:50;;;;;;;3.03;1.70;;;5.20;99.90;;;;;;5125288;27;20505;-62
2024/02/26 08:26:16;;;;;;;4.90;1.80;;;5.20;99.90;;;;;;5123997;27;20130;-62
2024/02/26 08:28:42;;;;;;;2.25;1.55;;;5.40;99.90;;;;;;5120899;27;20398;-62
2024/02/26 08:31:08;;;;;;;1.88;1.48;;;5.30;99.90;;;;;;5125797;27;20076;-62
2024/02/26 08:33:35;;;;;;;1.67;1.58;;;5.30;99.90;;;;;;5125720;27;20437;-62
2024/02/26 08:36:08;;;;;;;3.45;1.52;;;5.20;99.90;;;;;;5124302;27;20346;-62
2024/02/26 08:38:35;;;;;;;3.67;1.38;;;5.30;99.90;;;;;;5120511;27;20491;-62
2024/02/26 08:41:04;;;;;;;1.70;1.50;;;5.30;99.90;;;;;;5116775;27;20369;-63
2024/02/26 08:43:30;;;;;;;4.40;1.50;;;5.30;99.90;;;;;;5121757;27;20034;-61
2024/02/26 08:45:57;;;;;;;2.78;1.27;;;5.30;99.90;;;;;;5125509;27;20039;-62
2024/02/26 08:48:23;;;;;;;1.95;1.50;;;5.40;99.90;;;;;;5123530;27;20042;-61
2024/02/26 08:50:48;;;;;;;3.10;1.63;;;5.40;99.90;;;;;;5125951;27;20058;-60
2024/02/26 08:53:14;;;;;;;3.35;1.63;;;5.40;99.90;;;;;;5126541;27;20138;-62
2024/02/26 08:55:40;;;;;;;2.20;1.58;;;5.40;99.90;;;;;;5125485;27;20046;-62
2024/02/26 08:58:06;;;;;;;3.10;1.63;;;5.40;99.90;;;;;;5127509;27;20466;-61
2024/02/26 09:00:31;;;;;;;12.90;2.15;;;5.50;99.90;;;;;;5127506;27;20046;-62
2024/02/26 09:02:57;;;;;;;3.00;1.63;;;5.50;99.90;;;;;;5126620;27;20380;-61
2024/02/26 09:05:23;;;;;;;3.20;1.73;;;5.50;99.90;;;;;;5130615;27;20607;-62
2024/02/26 09:07:48;;;;;;;2.58;2.10;;;5.60;99.90;;;;;;5127763;27;20459;-60
2024/02/26 09:10:14;;;;;;;4.82;2.00;;;5.60;99.90;;;;;;5127333;27;20064;-61
2024/02/26 09:12:40;;;;;;;2.50;1.80;;;5.60;99.90;;;;;;5127743;27;20045;-62
2024/02/26 09:15:07;;;;;;;2.40;1.80;;;5.60;99.90;;;;;;5128470;27;20123;-62
2024/02/26 09:17:33;;;;;;;3.55;2.10;;;5.60;99.90;;;;;;5130578;27;20111;-62
2024/02/26 09:19:59;;;;;;;2.15;1.70;;;5.60;99.90;;;;;;5126160;27;20039;-62
2024/02/26 09:22:24;;;;;;;2.58;1.90;;;5.70;99.90;;;;;;5127803;27;20136;-62
2024/02/26 09:24:52;;;;;;;4.10;2.30;;;5.60;99.90;;;;;;5131398;27;20031;-62
2024/02/26 09:27:17;;;;;;;4.57;2.50;;;5.70;99.90;;;;;;5128180;27;20643;-62
2024/02/26 09:29:43;;;;;;;4.13;1.90;;;5.70;99.90;;;;;;5126322;27;20051;-61
2024/02/26 09:32:09;;;;;;;4.90;1.80;;;5.70;99.90;;;;;;5126322;27;20035;-61
2024/02/26 09:34:35;;;;;;;5.47;2.20;;;5.80;99.90;;;;;;5129406;27;20043;-61
2024/02/26 09:37:00;;;;;;;2.45;2.20;;;5.70;99.90;;;;;;5125730;27;20046;-62
2024/02/26 09:39:27;;;;;;;2.42;2.17;;;5.70;99.90;;;;;;5128422;27;20035;-62
2024/02/26 09:41:53;;;;;;;3.60;2.30;;;5.80;99.90;;;;;;5126169;27;20070;-61
2024/02/26 09:44:20;;;;;;;5.47;2.25;;;5.80;99.90;;;;;;5126489;27;20035;-62
2024/02/26 09:46:48;;;;;;;3.72;2.45;;;5.90;99.90;;;;;;5126356;27;20452;-62
2024/02/26 09:49:15;;;;;;;4.95;1.90;;;5.90;99.90;;;;;;5129713;27;20118;-61
2024/02/26 09:51:41;;;;;;;3.83;2.25;;;5.90;99.90;;;;;;5126345;27;20453;-62
2024/02/26 09:54:09;;;;;;;3.83;2.10;;;5.90;99.90;;;;;;5125609;27;20043;-61
2024/02/26 09:56:39;;;;;;;6.13;2.40;;;5.90;99.90;;;;;;5123297;27;20039;-62
2024/02/26 09:59:10;;;;;;;2.63;1.90;;;6.00;99.90;;;;;;5127368;27;20042;-62
2024/02/26 10:01:38;;;;;;;2.78;2.08;;;6.00;99.90;;;;;;5127821;27;20031;-61
2024/02/26 10:04:04;;;;;;;4.35;1.88;;;6.00;99.90;;;;;;5125671;27;20075;-62
2024/02/26 10:06:30;;;;;;;2.45;1.60;;;6.00;99.90;;;;;;5127299;27;20039;-62
2024/02/26 10:08:58;;;;;;;2.97;1.35;;;6.10;99.90;;;;;;5121739;27;20039;-63
2024/02/26 10:11:25;;;;;;;2.70;1.85;;;6.00;99.90;;;;;;5128750;27;20039;-61
2024/02/26 10:13:50;;;;;;;2.92;1.63;;;6.10;99.90;;;;;;5129036;27;20070;-60
2024/02/26 10:16:17;;;;;;;2.55;1.67;;;6.10;99.90;;;;;;5128851;27;20943;-62
2024/02/26 10:18:50;;;;;;;3.08;1.60;;;6.20;99.90;;;;;;5129917;27;20381;-61
2024/02/26 10:21:25;;;;;;;5.28;1.50;;;6.20;99.90;;;;;;5126457;27;20045;-61
2024/02/26 10:23:52;;;;;;;2.35;1.60;;;6.20;99.90;;;;;;5117748;27;20078;-61
2024/02/26 10:26:19;;;;;;;4.25;1.80;;;6.20;99.90;;;;;;5127723;27;20167;-62
2024/02/26 10:28:46;;;;;;;4.03;1.63;;;6.30;99.90;;;;;;5127354;27;20130;-62
2024/02/26 10:31:14;;;;;;;4.13;1.63;;;6.20;99.90;;;;;;5123720;27;20165;-62
2024/02/26 10:33:42;;;;;;;2.45;1.50;;;6.20;99.90;;;;;;5124382;27;20108;-62
2024/02/26 10:36:08;;;;;;;4.30;1.80;;;6.20;99.90;;;;;;5126235;27;20047;-62
2024/02/26 10:38:37;;;;;;;2.78;1.70;;;6.20;99.90;;;;;;5127611;27;20549;-62
2024/02/26 10:41:08;;;;;;;1.73;1.40;;;6.20;99.90;;;;;;5123442;27;20071;-62
2024/02/26 10:43:33;;;;;;;1.80;1.70;;;6.30;99.90;;;;;;5125418;27;20033;-62
2024/02/26 10:45:59;;;;;;;3.15;1.65;;;6.20;99.90;;;;;;5127068;27;20418;-62
2024/02/26 10:48:25;;;;;;;2.97;1.90;;;6.20;99.90;;;;;;5124983;27;20031;-61
2024/02/26 10:50:52;;;;;;;3.08;1.52;;;6.30;99.90;;;;;;5125036;27;20162;-62
2024/02/26 10:53:20;;;;;;;3.58;1.60;;;6.20;99.90;;;;;;5123147;27;20505;-62
2024/02/26 10:56:00;;;;;;;2.73;1.60;;;6.20;99.90;;;;;;5121440;27;20065;-62
2024/02/26 10:58:27;;;;;;;1.95;1.70;;;6.20;99.90;;;;;;5127065;27;20034;-62
2024/02/26 11:00:53;;;;;;;3.25;1.60;;;6.30;99.90;;;;;;5121309;27;20343;-62
2024/02/26 11:03:21;;;;;;;4.43;1.60;;;6.30;99.90;;;;;;5121210;27;20067;-63
2024/02/26 11:05:50;;;;;;;2.58;1.40;;;6.40;99.90;;;;;;5117302;27;20042;-63
2024/02/26 11:08:19;;;;;;;3.53;1.80;;;6.40;99.90;;;;;;5125232;27;20033;-60
2024/02/26 11:10:48;;;;;;;4.70;1.63;;;6.40;99.90;;;;;;5121906;27;20069;-62
2024/02/26 11:13:16;;;;;;;2.10;1.90;;;6.40;99.90;;;;;;5120506;27;20498;-62
2024/02/26 11:15:44;;;;;;;2.45;1.60;;;6.40;99.90;;;;;;5119174;27;20449;-62
2024/02/26 11:18:11;;;;;;;5.03;1.70;;;6.40;99.90;;;;;;5125338;27;20035;-62
2024/02/26 11:20:40;;;;;;;2.10;1.77;;;6.50;99.90;;;;;;5125880;27;20035;-62
2024/02/26 11:23:08;;;;;;;4.10;1.75;;;6.50;99.90;;;;;;5129793;27;20345;-62
2024/02/26 11:25:39;;;;;;;5.15;1.85;;;6.50;99.90;;;;;;5127820;27;20031;-62
2024/02/26 11:28:09;;;;;;;2.65;2.08;;;6.50;99.90;;;;;;5127615;27;20039;-62
2024/02/26 11:30:38;;;;;;;4.30;1.75;;;6.60;99.90;;;;;;5123264;27;20034;-62
2024/02/26 11:33:07;;;;;;;2.17;1.98;;;6.60;99.90;;;;;;5127962;27;20034;-62
2024/02/26 11:35:34;;;;;;;;;;;6.60;99.90;;;;;;5127649;27;20043;-62
2024/02/26 11:38:01;;;;;;;5.03;2.30;;;6.60;99.90;;;;;;5126304;27;19923;-62
2024/02/26 11:40:27;;;;;;;4.15;2.22;;;6.70;99.90;;;;;;5124087;27;20039;-62
2024/02/26 11:42:54;;;;;;;4.82;2.80;;;6.70;99.90;;;;;;5127942;27;20047;-62
2024/02/26 11:45:42;;;;;;;4.53;2.38;;;6.70;99.90;;;;;;5124062;27;20149;-62
2024/02/26 11:48:24;;;;;;;3.83;2.45;;;6.80;99.90;;;;;;5126412;27;20039;-62
2024/02/26 11:50:54;;;;;;;3.92;3.00;;;6.80;99.90;;;;;;5123570;27;20517;-62
2024/02/26 11:53:27;;;;;;;4.75;2.78;;;6.80;99.90;;;;;;5124919;27;20035;-62
2024/02/26 11:56:27;;;;;;;7.47;3.13;;;6.80;99.90;;;;;;5125183;27;20066;-63
2024/02/26 11:59:00;;;;;;;6.32;3.38;;;6.80;99.90;;;;;;5124769;27;20050;-62
2024/02/26 12:01:48;;;;;;;11.25;3.33;;;6.80;99.90;;;;;;5126470;27;20067;-62
2024/02/26 12:04:16;;;;;;;4.53;3.03;;;6.90;99.90;;;;;;5125291;27;20891;-63
2024/02/26 12:06:53;;;;;;;4.32;2.95;;;6.90;99.90;;;;;;5125672;27;20043;-63
2024/02/26 12:09:39;;;;;;;5.18;3.08;;;6.90;99.90;;;;;;5127431;27;20088;-63
2024/02/26 12:12:06;;;;;;;6.30;3.88;;;7.00;99.90;;;;;;5124513;27;20039;-63
2024/02/26 12:14:40;;;;;;;5.30;3.53;;;6.90;99.90;;;;;;5123946;27;20508;-63
2024/02/26 12:17:08;;;;;;;5.10;3.55;;;7.00;99.90;;;;;;5126604;27;20042;-62
2024/02/26 12:19:38;;;;;;;6.80;3.85;;;7.00;99.90;;;;;;5121639;27;20564;-62
2024/02/26 12:22:07;;;;;;;5.78;4.47;;;6.90;99.90;;;;;;5129033;27;20467;-62
2024/02/26 12:24:32;;;;;;;5.97;4.13;;;6.80;99.90;;;;;;5123707;27;20485;-63
2024/02/26 12:26:58;;;;;;;6.38;3.58;;;6.90;99.90;;;;;;5125736;27;20035;-62
2024/02/26 12:29:24;;;;;;;6.07;3.60;;;6.80;99.90;;;;;;5125660;27;20169;-62
2024/02/26 12:31:50;;;;;;;8.30;4.38;;;6.80;99.90;;;;;;5130385;27;20534;-62
2024/02/26 12:34:16;;;;;;;4.97;4.20;;;6.80;99.90;;;;;;5130346;27;20128;-62
2024/02/26 12:36:42;;;;;;;6.07;4.38;;;6.70;99.90;;;;;;5130453;27;20039;-64
2024/02/26 12:39:09;;;;;;;6.25;4.25;;;6.70;99.90;;;;;;5126943;27;20659;-62
2024/02/26 12:41:35;;;;;;;7.80;4.00;;;6.70;99.90;;;;;;5131018;27;20065;-62
2024/02/26 12:44:01;;;;;;;8.05;4.47;;;6.70;99.90;;;;;;5125889;27;20027;-62
2024/02/26 12:46:27;;;;;;;12.05;4.45;;;6.80;99.90;;;;;;5124271;27;20426;-62
2024/02/26 12:48:58;;;;;;;7.25;4.32;;;6.70;99.90;;;;;;5126390;27;20034;-62
2024/02/26 12:51:25;;;;;;;5.53;4.40;;;6.70;99.90;;;;;;5125139;27;20468;-62
2024/02/26 12:53:52;;;;;;;6.43;4.80;;;6.70;99.90;;;;;;5124144;27;20088;-62